Biotrans — JWPN — position and weather

sailwx.info

Track history (hours):
 
Tides and Currents Weather Stations Pressure Air Temp Water Temp Dewpoint Dewpoint Depression Visibility Wind Speed Wind Dir Waves Ship Positions

Biotrans

Last reported at 2017-Mar-24 17:33 UTC. Time now 2017-Mar-24 17:49 UTC.
Position N 63°46' E 009°46'.

Length 55 m; draft 5.5 m.

Type: Cargo ship. MMSI: 259260000.

Date/timePositionNaut miles runAvg speedWind from/ knotsBaromVisibWave heightAir tempDewpointWater temp
2017-Mar-24 17:33N 63°46' E 009°46'0 0.0
2017-Mar-24 16:33N 63°46' E 009°46'0 0.0
2017-Mar-24 15:33N 63°46' E 009°46'0 0.0
2017-Mar-24 14:32N 63°46' E 009°46'0 0.0
2017-Mar-24 13:33N 63°46' E 009°46'0 0.1
2017-Mar-24 12:33N 63°46' E 009°45'0 0.0
2017-Mar-24 11:33N 63°46' E 009°45'0 0.0
2017-Mar-24 10:33N 63°46' E 009°45'0 0.0
2017-Mar-24 09:33N 63°46' E 009°45'0 0.0
2017-Mar-24 08:33N 63°46' E 009°45'0 0.0
2017-Mar-24 07:33N 63°46' E 009°45'0 0.0
2017-Mar-24 06:33N 63°46' E 009°45'0 0.0
2017-Mar-24 05:32N 63°46' E 009°45'0 0.0
2017-Mar-24 04:33N 63°46' E 009°45'0 0.0
2017-Mar-24 03:32N 63°46' E 009°45'0 0.0
2017-Mar-24 02:33N 63°46' E 009°45'0 0.0
2017-Mar-24 01:33N 63°46' E 009°45'0 0.0
2017-Mar-24 00:33N 63°46' E 009°45'0 0.0
2017-Mar-23 23:33N 63°46' E 009°45'0 0.0
2017-Mar-23 22:32N 63°46' E 009°45'0 0.0
2017-Mar-23 21:33N 63°46' E 009°45'0 0.0
2017-Mar-23 20:33N 63°46' E 009°45'0 0.0
2017-Mar-23 19:33N 63°46' E 009°45'0 0.0
2017-Mar-23 18:33N 63°46' E 009°45'0 0.0
2017-Mar-23 17:33N 63°46' E 009°45'0 0.0
2017-Mar-23 16:32N 63°46' E 009°45'0 0.1
2017-Mar-23 15:11N 63°46' E 009°46'0 0.0
2017-Mar-23 14:33N 63°46' E 009°46'0 0.0
2017-Mar-23 13:32N 63°46' E 009°46'0 0.0
2017-Mar-23 12:33N 63°46' E 009°46'0 0.0
2017-Mar-23 11:33N 63°46' E 009°46'0 0.0
2017-Mar-23 10:33N 63°46' E 009°46'0 0.0
2017-Mar-23 09:32N 63°46' E 009°46'0 0.1
2017-Mar-23 08:33N 63°46' E 009°45'0 0.0
2017-Mar-23 07:33N 63°46' E 009°45'0 0.0
2017-Mar-23 06:33N 63°46' E 009°45'0 0.0
2017-Mar-23 05:33N 63°46' E 009°45'0 0.0
2017-Mar-23 04:33N 63°46' E 009°45'0 0.0
2017-Mar-23 03:33N 63°46' E 009°45'0 0.0
2017-Mar-23 02:33N 63°46' E 009°45'0 0.0
2017-Mar-23 01:33N 63°46' E 009°45'0 0.0
2017-Mar-23 00:33N 63°46' E 009°45'0 0.0
2017-Mar-22 23:33N 63°46' E 009°45'2 2.3
2017-Mar-22 22:33N 63°45' E 009°41'6 5.5
2017-Mar-22 21:32N 63°50' E 009°38'7 7.5
2017-Mar-22 20:33N 63°54' E 009°52'1 1.1
2017-Mar-22 19:33N 63°53' E 009°52'0 0.0
2017-Mar-22 18:33N 63°53' E 009°52'0 0.0
2017-Mar-22 17:33N 63°53' E 009°52'4 3.7
2017-Mar-22 16:33N 63°57' E 009°54'8 7.5
2017-Mar-22 15:33N 64°03' E 010°03'7 7.2
2017-Mar-22 14:33N 64°10' E 010°08'8 8.3
2017-Mar-22 13:33N 64°17' E 010°19'8 7.7
2017-Mar-22 12:33N 64°24' E 010°26'7 6.8
2017-Mar-22 11:33N 64°30' E 010°33'7 6.8
2017-Mar-22 10:33N 64°36' E 010°40'8 7.7
2017-Mar-22 09:33N 64°42' E 010°51'7 7.4
2017-Mar-22 08:33N 64°47' E 011°04'7 7.5
2017-Mar-22 07:33N 64°52' E 011°17'8 7.7
2017-Mar-22 06:33N 64°57' E 011°31'8 7.9
2017-Mar-22 05:33N 65°03' E 011°44'9 8.6
2017-Mar-22 04:33N 65°11' E 011°51'8 8.3
2017-Mar-22 03:33N 65°18' E 011°59'7 6.5
2017-Mar-22 02:33N 65°25' E 011°57'7 7.5
2017-Mar-22 01:33N 65°32' E 012°02'8 8.2
2017-Mar-22 00:33N 65°39' E 012°13'8 8.3
2017-Mar-21 23:32N 65°47' E 012°19'8 8.1
2017-Mar-21 22:33N 65°55' E 012°23'8 8.1
2017-Mar-21 21:33N 66°02' E 012°34'8 8.2
2017-Mar-21 20:33N 66°08' E 012°47'8 8.1
2017-Mar-21 19:33N 66°15' E 012°54'8 8.1
2017-Mar-21 18:33N 66°23' E 012°58'8 7.9
2017-Mar-21 17:32N 66°31' E 012°58'7 7.4
2017-Mar-21 16:32N 66°38' E 013°06'8 8.1
2017-Mar-21 15:33N 66°46' E 013°13'8 7.9
2017-Mar-21 14:33N 66°53' E 013°22'7 7.1
2017-Mar-21 13:33N 66°58' E 013°33'8 8.4
2017-Mar-21 12:33N 67°03' E 013°51'8 8.3
2017-Mar-21 11:33N 67°10' E 014°03'9 8.6
2017-Mar-21 10:33N 67°17' E 014°14'9 8.7
2017-Mar-21 09:33N 67°25' E 014°27'9 8.5
2017-Mar-21 08:33N 67°33' E 014°30'9 8.5
2017-Mar-21 07:32N 67°42' E 014°31'8 7.8
2017-Mar-21 06:33N 67°49' E 014°35'8 8.2
2017-Mar-21 05:33N 67°56' E 014°46'8 8.2
2017-Mar-21 04:33N 68°02' E 015°02'8 8.2
2017-Mar-21 03:33N 68°08' E 015°18'9 8.6
2017-Mar-21 02:32N 68°13' E 015°36'9 8.8
2017-Mar-21 01:33N 68°19' E 015°52'8 8.4
2017-Mar-21 00:33N 68°26' E 016°04'8 8.4
2017-Mar-20 23:33N 68°33' E 016°18'8 7.8
2017-Mar-20 22:33N 68°38' E 016°35'8 7.7
2017-Mar-20 21:33N 68°45' E 016°38'3 2.9
2017-Mar-20 20:33N 68°48' E 016°34'0 0.0
2017-Mar-20 19:33N 68°48' E 016°34'3 3.4
2017-Mar-20 18:33N 68°46' E 016°42'7 7.3
2017-Mar-20 17:32N 68°44' E 017°01'6 6.2
2017-Mar-20 16:33N 68°44' E 017°18'0 0.2
2017-Mar-20 15:33N 68°44' E 017°18'7 7.0
2017-Mar-20 14:33N 68°50' E 017°08'7 6.5
2017-Mar-20 13:33N 68°56' E 017°05'8 8.0
2017-Mar-20 12:33N 69°02' E 017°19'9 8.6
2017-Mar-20 11:33N 69°07' E 017°38'9 8.9
2017-Mar-20 10:33N 69°11' E 018°01'8 7.6
2017-Mar-20 09:33N 69°19' E 017°59'8 7.8
2017-Mar-20 08:33N 69°26' E 018°07'8 7.7
2017-Mar-20 07:33N 69°31' E 018°24'9 9.1
2017-Mar-20 06:33N 69°34' E 018°49'9 8.9
2017-Mar-20 05:33N 69°42' E 019°03'8 8.2
2017-Mar-20 04:33N 69°48' E 019°20'9 8.8
2017-Mar-20 03:33N 69°51' E 019°43'9 8.9
2017-Mar-20 02:33N 69°56' E 020°03'9 8.6
2017-Mar-20 01:33N 70°00' E 020°25'9 8.6
2017-Mar-20 00:32N 70°03' E 020°49'8 8.4
2017-Mar-19 23:33N 70°10' E 021°03'8 7.8
2017-Mar-19 22:33N 70°16' E 021°17'8 7.8
2017-Mar-19 21:33N 70°22' E 021°33'7 7.0
2017-Mar-19 20:33N 70°25' E 021°51'8 7.6
2017-Mar-19 19:33N 70°27' E 022°13'8 8.1
2017-Mar-19 18:33N 70°29' E 022°37'7 7.2
2017-Mar-19 17:33N 70°31' E 022°58'6 5.5
2017-Mar-19 16:33N 70°32' E 023°14'0 0.0
2017-Mar-19 15:33N 70°32' E 023°14'4 3.5
2017-Mar-19 14:32N 70°35' E 023°16'7 7.4
2017-Mar-19 13:33N 70°41' E 023°28'7 7.3
2017-Mar-19 12:33N 70°47' E 023°41'8 7.9
2017-Mar-19 11:33N 70°53' E 023°58'9 8.6
2017-Mar-19 10:33N 70°58' E 024°20'7 6.7
2017-Mar-19 09:32N 71°02' E 024°37'2 2.4
2017-Mar-19 08:32N 70°60' E 024°40'0 0.0
2017-Mar-19 07:33N 70°60' E 024°40'0 0.0
2017-Mar-19 06:33N 70°60' E 024°40'1 1.5
2017-Mar-19 05:33N 70°60' E 024°44'6 6.2
2017-Mar-19 04:33N 70°59' E 025°03'7 6.9
2017-Mar-19 03:32N 70°58' E 025°25'6 5.9
2017-Mar-19 02:33N 70°54' E 025°34'4 3.6
2017-Mar-19 01:33N 70°55' E 025°44'8 8.1
2017-Mar-19 00:33N 70°58' E 026°07'10 9.8
2017-Mar-18 23:32N 71°03' E 026°35'9 9.0
2017-Mar-18 22:33N 71°06' E 027°00'8 7.9
2017-Mar-18 21:33N 71°08' E 027°23'8 7.7
2017-Mar-18 20:33N 71°10' E 027°46'7 7.3
2017-Mar-18 19:33N 71°09' E 028°08'7 7.0
2017-Mar-18 18:33N 71°06' E 028°28'7 7.2
2017-Mar-18 17:32N 71°02' E 028°47'7 7.4
2017-Mar-18 16:33N 70°57' E 029°03'8 7.5
2017-Mar-18 15:33N 70°52' E 029°19'8 7.7
2017-Mar-18 14:32N 70°47' E 029°38'7 7.1
2017-Mar-18 13:33N 70°41' E 029°50'5 4.6
2017-Mar-18 12:33N 70°37' E 029°42'0 0.0
2017-Mar-18 11:33N 70°37' E 029°42'0 0.0
2017-Mar-18 10:32N 70°37' E 029°42'0 0.0
2017-Mar-18 09:33N 70°37' E 029°42'0 0.0
2017-Mar-18 08:33N 70°37' E 029°42'5 4.7
2017-Mar-18 07:33N 70°41' E 029°50'8 8.5
2017-Mar-18 06:33N 70°48' E 029°33'10 9.7
2017-Mar-18 05:32N 70°54' E 029°11'9 9.4
2017-Mar-18 04:33N 70°59' E 028°47'9 9.5
2017-Mar-18 03:33N 71°05' E 028°23'9 8.9
2017-Mar-18 02:32N 71°09' E 027°59'9 8.8
2017-Mar-18 01:33N 71°10' E 027°32'7 7.5
2017-Mar-18 00:33N 71°04' E 027°16'8 7.7
2017-Mar-17 23:32N 70°58' E 027°04'7 7.5
2017-Mar-17 22:33N 70°50' E 027°01'8 8.3
2017-Mar-17 21:33N 70°42' E 027°01'5 2.3
2017-Mar-17 19:25N 70°38' E 027°07'7 7.4
2017-Mar-17 18:32N 70°44' E 026°58'9 9.1
2017-Mar-17 17:33N 70°52' E 026°53'8 8.1
2017-Mar-17 16:33N 70°59' E 026°41'9 9.1
2017-Mar-17 15:33N 70°57' E 026°13'9 9.1
2017-Mar-17 14:33N 70°56' E 025°46'4 4.3
2017-Mar-17 13:33N 70°54' E 025°34'3 3.1
2017-Mar-17 12:33N 70°56' E 025°30'8 8.2
2017-Mar-17 11:33N 70°59' E 025°06'8 7.8
2017-Mar-17 10:33N 71°01' E 024°43'6 6.2
2017-Mar-17 09:33N 70°58' E 024°26'8 8.2
2017-Mar-17 08:33N 70°51' E 024°14'8 7.8
2017-Mar-17 07:33N 70°43' E 024°23'6 6.3
2017-Mar-17 06:33N 70°38' E 024°34'0 0.0
2017-Mar-17 05:33N 70°38' E 024°34'6 6.0
2017-Mar-17 04:33N 70°43' E 024°22'10 9.6
2017-Mar-17 03:33N 70°45' E 023°54'9 9.1
2017-Mar-17 02:32N 70°41' E 023°28'1110.8
2017-Mar-17 01:33N 70°34' E 023°06'1110.6
2017-Mar-17 00:33N 70°25' E 022°48'7 7.4
2017-Mar-16 23:33N 70°18' E 022°56'0 0.0
2017-Mar-16 22:33N 70°18' E 022°56'4 4.1
2017-Mar-16 21:33N 70°14' E 022°55'10 9.7
2017-Mar-16 20:33N 70°16' E 022°27'10 9.6
2017-Mar-16 19:33N 70°20' E 022°01'8 8.5
2017-Mar-16 18:33N 70°16' E 021°41'6 5.6
2017-Mar-16 17:33N 70°18' E 021°27'9 9.5
2017-Mar-16 16:33N 70°12' E 021°06'9 9.4
2017-Mar-16 15:33N 70°04' E 020°54'2310.1
2017-Mar-16 13:15N 69°54' E 019°54'7 9.7
2017-Mar-16 12:33N 69°50' E 019°37'1010.2
2017-Mar-16 11:32N 69°46' E 019°10'9 9.6
2017-Mar-16 10:33N 69°38' E 018°56'10 9.8
2017-Mar-16 09:33N 69°32' E 018°33'9 9.2
2017-Mar-16 08:33N 69°28' E 018°08'9 8.7
2017-Mar-16 07:33N 69°20' E 018°02'8 7.7
2017-Mar-16 06:33N 69°12' E 018°01'8 8.3
2017-Mar-16 05:33N 69°08' E 017°41'9 8.8
2017-Mar-16 04:32N 69°03' E 017°20'9 9.0
2017-Mar-16 03:33N 68°56' E 017°03'9 8.9
2017-Mar-16 02:33N 68°51' E 016°43'5 5.2
2017-Mar-16 01:33N 68°47' E 016°33'6 6.2
2017-Mar-16 00:33N 68°42' E 016°40'9 8.8
2017-Mar-15 23:33N 68°34' E 016°31'8 8.1
2017-Mar-15 22:33N 68°31' E 016°10'9 8.9
2017-Mar-15 21:33N 68°23' E 016°00'1110.3
2017-Mar-15 20:32N 68°15' E 015°41'1110.7
2017-Mar-15 19:33N 68°08' E 015°20'1110.6
2017-Mar-15 18:33N 68°01' E 014°60'1010.1
2017-Mar-15 17:33N 67°53' E 014°44'9 8.7
2017-Mar-15 16:33N 67°45' E 014°31'9 9.5
2017-Mar-15 15:33N 67°36' E 014°30'9 9.6
2017-Mar-15 14:33N 67°26' E 014°28'9 8.8
2017-Mar-15 13:33N 67°18' E 014°23'0 0.3
2017-Mar-15 12:33N 67°18' E 014°23'0 0.0
2017-Mar-15 11:33N 67°18' E 014°23'0 0.0
2017-Mar-15 10:33N 67°18' E 014°23'0 0.0
2017-Mar-15 09:33N 67°18' E 014°23'0 0.0
2017-Mar-15 08:33N 67°18' E 014°23'0 0.0
2017-Mar-15 07:33N 67°18' E 014°23'0 0.0
2017-Mar-15 06:33N 67°18' E 014°23'0 0.0
2017-Mar-15 05:33N 67°18' E 014°23'0 0.0
2017-Mar-15 04:33N 67°18' E 014°23'0 0.0
2017-Mar-15 03:33N 67°18' E 014°23'1 0.6
2017-Mar-15 02:33N 67°17' E 014°23'8 8.4
2017-Mar-15 01:33N 67°12' E 014°06'1010.3
2017-Mar-15 00:33N 67°03' E 013°51'10 9.9
2017-Mar-14 23:33N 66°58' E 013°30'10 9.7
2017-Mar-14 22:33N 66°50' E 013°16'1010.1
2017-Mar-14 21:33N 66°40' E 013°08'10 9.6
2017-Mar-14 20:33N 66°31' E 012°58'1110.5
2017-Mar-14 19:33N 66°21' E 012°57'1010.0
2017-Mar-14 18:33N 66°11' E 012°51'  
Track history (hours):
 
Tides and Currents Weather Stations Pressure Air Temp Water Temp Dewpoint Dewpoint Depression Visibility Wind Speed Wind Dir Waves Ship Positions

Biotrans

Last reported at 2017-Mar-24 17:33 UTC. Time now 2017-Mar-24 17:49 UTC.
Position N 63°46' E 009°46'.

Length 55 m; draft 5.5 m.

Type: Cargo ship. MMSI: 259260000.

Date/timePositionNaut miles runAvg speedWind from/ knotsBaromVisibWave heightAir tempDewpointWater temp
2017-Mar-24 17:33N 63°46' E 009°46'0 0.0
2017-Mar-24 16:33N 63°46' E 009°46'0 0.0
2017-Mar-24 15:33N 63°46' E 009°46'0 0.0
2017-Mar-24 14:32N 63°46' E 009°46'0 0.0
2017-Mar-24 13:33N 63°46' E 009°46'0 0.1
2017-Mar-24 12:33N 63°46' E 009°45'0 0.0
2017-Mar-24 11:33N 63°46' E 009°45'0 0.0
2017-Mar-24 10:33N 63°46' E 009°45'0 0.0
2017-Mar-24 09:33N 63°46' E 009°45'0 0.0
2017-Mar-24 08:33N 63°46' E 009°45'0 0.0
2017-Mar-24 07:33N 63°46' E 009°45'0 0.0
2017-Mar-24 06:33N 63°46' E 009°45'0 0.0
2017-Mar-24 05:32N 63°46' E 009°45'0 0.0
2017-Mar-24 04:33N 63°46' E 009°45'0 0.0
2017-Mar-24 03:32N 63°46' E 009°45'0 0.0
2017-Mar-24 02:33N 63°46' E 009°45'0 0.0
2017-Mar-24 01:33N 63°46' E 009°45'0 0.0
2017-Mar-24 00:33N 63°46' E 009°45'0 0.0
2017-Mar-23 23:33N 63°46' E 009°45'0 0.0
2017-Mar-23 22:32N 63°46' E 009°45'0 0.0
2017-Mar-23 21:33N 63°46' E 009°45'0 0.0
2017-Mar-23 20:33N 63°46' E 009°45'0 0.0
2017-Mar-23 19:33N 63°46' E 009°45'0 0.0
2017-Mar-23 18:33N 63°46' E 009°45'0 0.0
2017-Mar-23 17:33N 63°46' E 009°45'0 0.0
2017-Mar-23 16:32N 63°46' E 009°45'0 0.1
2017-Mar-23 15:11N 63°46' E 009°46'0 0.0
2017-Mar-23 14:33N 63°46' E 009°46'0 0.0
2017-Mar-23 13:32N 63°46' E 009°46'0 0.0
2017-Mar-23 12:33N 63°46' E 009°46'0 0.0
2017-Mar-23 11:33N 63°46' E 009°46'0 0.0
2017-Mar-23 10:33N 63°46' E 009°46'0 0.0
2017-Mar-23 09:32N 63°46' E 009°46'0 0.1
2017-Mar-23 08:33N 63°46' E 009°45'0 0.0
2017-Mar-23 07:33N 63°46' E 009°45'0 0.0
2017-Mar-23 06:33N 63°46' E 009°45'0 0.0
2017-Mar-23 05:33N 63°46' E 009°45'0 0.0
2017-Mar-23 04:33N 63°46' E 009°45'0 0.0
2017-Mar-23 03:33N 63°46' E 009°45'0 0.0
2017-Mar-23 02:33N 63°46' E 009°45'0 0.0
2017-Mar-23 01:33N 63°46' E 009°45'0 0.0
2017-Mar-23 00:33N 63°46' E 009°45'0 0.0
2017-Mar-22 23:33N 63°46' E 009°45'2 2.3
2017-Mar-22 22:33N 63°45' E 009°41'6 5.5
2017-Mar-22 21:32N 63°50' E 009°38'7 7.5
2017-Mar-22 20:33N 63°54' E 009°52'1 1.1
2017-Mar-22 19:33N 63°53' E 009°52'0 0.0
2017-Mar-22 18:33N 63°53' E 009°52'0 0.0
2017-Mar-22 17:33N 63°53' E 009°52'4 3.7
2017-Mar-22 16:33N 63°57' E 009°54'8 7.5
2017-Mar-22 15:33N 64°03' E 010°03'7 7.2
2017-Mar-22 14:33N 64°10' E 010°08'8 8.3
2017-Mar-22 13:33N 64°17' E 010°19'8 7.7
2017-Mar-22 12:33N 64°24' E 010°26'7 6.8
2017-Mar-22 11:33N 64°30' E 010°33'7 6.8
2017-Mar-22 10:33N 64°36' E 010°40'8 7.7
2017-Mar-22 09:33N 64°42' E 010°51'7 7.4
2017-Mar-22 08:33N 64°47' E 011°04'7 7.5
2017-Mar-22 07:33N 64°52' E 011°17'8 7.7
2017-Mar-22 06:33N 64°57' E 011°31'8 7.9
2017-Mar-22 05:33N 65°03' E 011°44'9 8.6
2017-Mar-22 04:33N 65°11' E 011°51'8 8.3
2017-Mar-22 03:33N 65°18' E 011°59'7 6.5
2017-Mar-22 02:33N 65°25' E 011°57'7 7.5
2017-Mar-22 01:33N 65°32' E 012°02'8 8.2
2017-Mar-22 00:33N 65°39' E 012°13'8 8.3
2017-Mar-21 23:32N 65°47' E 012°19'8 8.1
2017-Mar-21 22:33N 65°55' E 012°23'8 8.1
2017-Mar-21 21:33N 66°02' E 012°34'8 8.2
2017-Mar-21 20:33N 66°08' E 012°47'8 8.1
2017-Mar-21 19:33N 66°15' E 012°54'8 8.1
2017-Mar-21 18:33N 66°23' E 012°58'8 7.9
2017-Mar-21 17:32N 66°31' E 012°58'7 7.4
2017-Mar-21 16:32N 66°38' E 013°06'8 8.1
2017-Mar-21 15:33N 66°46' E 013°13'8 7.9
2017-Mar-21 14:33N 66°53' E 013°22'7 7.1
2017-Mar-21 13:33N 66°58' E 013°33'8 8.4
2017-Mar-21 12:33N 67°03' E 013°51'8 8.3
2017-Mar-21 11:33N 67°10' E 014°03'9 8.6
2017-Mar-21 10:33N 67°17' E 014°14'9 8.7
2017-Mar-21 09:33N 67°25' E 014°27'9 8.5
2017-Mar-21 08:33N 67°33' E 014°30'9 8.5
2017-Mar-21 07:32N 67°42' E 014°31'8 7.8
2017-Mar-21 06:33N 67°49' E 014°35'8 8.2
2017-Mar-21 05:33N 67°56' E 014°46'8 8.2
2017-Mar-21 04:33N 68°02' E 015°02'8 8.2
2017-Mar-21 03:33N 68°08' E 015°18'9 8.6
2017-Mar-21 02:32N 68°13' E 015°36'9 8.8
2017-Mar-21 01:33N 68°19' E 015°52'8 8.4
2017-Mar-21 00:33N 68°26' E 016°04'8 8.4
2017-Mar-20 23:33N 68°33' E 016°18'8 7.8
2017-Mar-20 22:33N 68°38' E 016°35'8 7.7
2017-Mar-20 21:33N 68°45' E 016°38'3 2.9
2017-Mar-20 20:33N 68°48' E 016°34'0 0.0
2017-Mar-20 19:33N 68°48' E 016°34'3 3.4
2017-Mar-20 18:33N 68°46' E 016°42'7 7.3
2017-Mar-20 17:32N 68°44' E 017°01'6 6.2
2017-Mar-20 16:33N 68°44' E 017°18'0 0.2
2017-Mar-20 15:33N 68°44' E 017°18'7 7.0
2017-Mar-20 14:33N 68°50' E 017°08'7 6.5
2017-Mar-20 13:33N 68°56' E 017°05'8 8.0
2017-Mar-20 12:33N 69°02' E 017°19'9 8.6
2017-Mar-20 11:33N 69°07' E 017°38'9 8.9
2017-Mar-20 10:33N 69°11' E 018°01'8 7.6
2017-Mar-20 09:33N 69°19' E 017°59'8 7.8
2017-Mar-20 08:33N 69°26' E 018°07'8 7.7
2017-Mar-20 07:33N 69°31' E 018°24'9 9.1
2017-Mar-20 06:33N 69°34' E 018°49'9 8.9
2017-Mar-20 05:33N 69°42' E 019°03'8 8.2
2017-Mar-20 04:33N 69°48' E 019°20'9 8.8
2017-Mar-20 03:33N 69°51' E 019°43'9 8.9
2017-Mar-20 02:33N 69°56' E 020°03'9 8.6
2017-Mar-20 01:33N 70°00' E 020°25'9 8.6
2017-Mar-20 00:32N 70°03' E 020°49'8 8.4
2017-Mar-19 23:33N 70°10' E 021°03'8 7.8
2017-Mar-19 22:33N 70°16' E 021°17'8 7.8
2017-Mar-19 21:33N 70°22' E 021°33'7 7.0
2017-Mar-19 20:33N 70°25' E 021°51'8 7.6
2017-Mar-19 19:33N 70°27' E 022°13'8 8.1
2017-Mar-19 18:33N 70°29' E 022°37'7 7.2
2017-Mar-19 17:33N 70°31' E 022°58'6 5.5
2017-Mar-19 16:33N 70°32' E 023°14'0 0.0
2017-Mar-19 15:33N 70°32' E 023°14'4 3.5
2017-Mar-19 14:32N 70°35' E 023°16'7 7.4
2017-Mar-19 13:33N 70°41' E 023°28'7 7.3
2017-Mar-19 12:33N 70°47' E 023°41'8 7.9
2017-Mar-19 11:33N 70°53' E 023°58'9 8.6
2017-Mar-19 10:33N 70°58' E 024°20'7 6.7
2017-Mar-19 09:32N 71°02' E 024°37'2 2.4
2017-Mar-19 08:32N 70°60' E 024°40'0 0.0
2017-Mar-19 07:33N 70°60' E 024°40'0 0.0
2017-Mar-19 06:33N 70°60' E 024°40'1 1.5
2017-Mar-19 05:33N 70°60' E 024°44'6 6.2
2017-Mar-19 04:33N 70°59' E 025°03'7 6.9
2017-Mar-19 03:32N 70°58' E 025°25'6 5.9
2017-Mar-19 02:33N 70°54' E 025°34'4 3.6
2017-Mar-19 01:33N 70°55' E 025°44'8 8.1
2017-Mar-19 00:33N 70°58' E 026°07'10 9.8
2017-Mar-18 23:32N 71°03' E 026°35'9 9.0
2017-Mar-18 22:33N 71°06' E 027°00'8 7.9
2017-Mar-18 21:33N 71°08' E 027°23'8 7.7
2017-Mar-18 20:33N 71°10' E 027°46'7 7.3
2017-Mar-18 19:33N 71°09' E 028°08'7 7.0
2017-Mar-18 18:33N 71°06' E 028°28'7 7.2
2017-Mar-18 17:32N 71°02' E 028°47'7 7.4
2017-Mar-18 16:33N 70°57' E 029°03'8 7.5
2017-Mar-18 15:33N 70°52' E 029°19'8 7.7
2017-Mar-18 14:32N 70°47' E 029°38'7 7.1
2017-Mar-18 13:33N 70°41' E 029°50'5 4.6
2017-Mar-18 12:33N 70°37' E 029°42'0 0.0
2017-Mar-18 11:33N 70°37' E 029°42'0 0.0
2017-Mar-18 10:32N 70°37' E 029°42'0 0.0
2017-Mar-18 09:33N 70°37' E 029°42'0 0.0
2017-Mar-18 08:33N 70°37' E 029°42'5 4.7
2017-Mar-18 07:33N 70°41' E 029°50'8 8.5
2017-Mar-18 06:33N 70°48' E 029°33'10 9.7
2017-Mar-18 05:32N 70°54' E 029°11'9 9.4
2017-Mar-18 04:33N 70°59' E 028°47'9 9.5
2017-Mar-18 03:33N 71°05' E 028°23'9 8.9
2017-Mar-18 02:32N 71°09' E 027°59'9 8.8
2017-Mar-18 01:33N 71°10' E 027°32'7 7.5
2017-Mar-18 00:33N 71°04' E 027°16'8 7.7
2017-Mar-17 23:32N 70°58' E 027°04'7 7.5
2017-Mar-17 22:33N 70°50' E 027°01'8 8.3
2017-Mar-17 21:33N 70°42' E 027°01'5 2.3
2017-Mar-17 19:25N 70°38' E 027°07'7 7.4
2017-Mar-17 18:32N 70°44' E 026°58'9 9.1
2017-Mar-17 17:33N 70°52' E 026°53'8 8.1
2017-Mar-17 16:33N 70°59' E 026°41'9 9.1
2017-Mar-17 15:33N 70°57' E 026°13'9 9.1
2017-Mar-17 14:33N 70°56' E 025°46'4 4.3
2017-Mar-17 13:33N 70°54' E 025°34'3 3.1
2017-Mar-17 12:33N 70°56' E 025°30'8 8.2
2017-Mar-17 11:33N 70°59' E 025°06'8 7.8
2017-Mar-17 10:33N 71°01' E 024°43'6 6.2
2017-Mar-17 09:33N 70°58' E 024°26'8 8.2
2017-Mar-17 08:33N 70°51' E 024°14'8 7.8
2017-Mar-17 07:33N 70°43' E 024°23'6 6.3
2017-Mar-17 06:33N 70°38' E 024°34'0 0.0
2017-Mar-17 05:33N 70°38' E 024°34'6 6.0
2017-Mar-17 04:33N 70°43' E 024°22'10 9.6
2017-Mar-17 03:33N 70°45' E 023°54'9 9.1
2017-Mar-17 02:32N 70°41' E 023°28'1110.8
2017-Mar-17 01:33N 70°34' E 023°06'1110.6
2017-Mar-17 00:33N 70°25' E 022°48'7 7.4
2017-Mar-16 23:33N 70°18' E 022°56'0 0.0
2017-Mar-16 22:33N 70°18' E 022°56'4 4.1
2017-Mar-16 21:33N 70°14' E 022°55'10 9.7
2017-Mar-16 20:33N 70°16' E 022°27'10 9.6
2017-Mar-16 19:33N 70°20' E 022°01'8 8.5
2017-Mar-16 18:33N 70°16' E 021°41'6 5.6
2017-Mar-16 17:33N 70°18' E 021°27'9 9.5
2017-Mar-16 16:33N 70°12' E 021°06'9 9.4
2017-Mar-16 15:33N 70°04' E 020°54'2310.1
2017-Mar-16 13:15N 69°54' E 019°54'7 9.7
2017-Mar-16 12:33N 69°50' E 019°37'1010.2
2017-Mar-16 11:32N 69°46' E 019°10'9 9.6
2017-Mar-16 10:33N 69°38' E 018°56'10 9.8
2017-Mar-16 09:33N 69°32' E 018°33'9 9.2
2017-Mar-16 08:33N 69°28' E 018°08'9 8.7
2017-Mar-16 07:33N 69°20' E 018°02'8 7.7
2017-Mar-16 06:33N 69°12' E 018°01'8 8.3
2017-Mar-16 05:33N 69°08' E 017°41'9 8.8
2017-Mar-16 04:32N 69°03' E 017°20'9 9.0
2017-Mar-16 03:33N 68°56' E 017°03'9 8.9
2017-Mar-16 02:33N 68°51' E 016°43'5 5.2
2017-Mar-16 01:33N 68°47' E 016°33'6 6.2
2017-Mar-16 00:33N 68°42' E 016°40'9 8.8
2017-Mar-15 23:33N 68°34' E 016°31'8 8.1
2017-Mar-15 22:33N 68°31' E 016°10'9 8.9
2017-Mar-15 21:33N 68°23' E 016°00'1110.3
2017-Mar-15 20:32N 68°15' E 015°41'1110.7
2017-Mar-15 19:33N 68°08' E 015°20'1110.6
2017-Mar-15 18:33N 68°01' E 014°60'1010.1
2017-Mar-15 17:33N 67°53' E 014°44'9 8.7
2017-Mar-15 16:33N 67°45' E 014°31'9 9.5
2017-Mar-15 15:33N 67°36' E 014°30'9 9.6
2017-Mar-15 14:33N 67°26' E 014°28'9 8.8
2017-Mar-15 13:33N 67°18' E 014°23'0 0.3
2017-Mar-15 12:33N 67°18' E 014°23'0 0.0
2017-Mar-15 11:33N 67°18' E 014°23'0 0.0
2017-Mar-15 10:33N 67°18' E 014°23'0 0.0
2017-Mar-15 09:33N 67°18' E 014°23'0 0.0
2017-Mar-15 08:33N 67°18' E 014°23'0 0.0
2017-Mar-15 07:33N 67°18' E 014°23'0 0.0
2017-Mar-15 06:33N 67°18' E 014°23'0 0.0
2017-Mar-15 05:33N 67°18' E 014°23'0 0.0
2017-Mar-15 04:33N 67°18' E 014°23'0 0.0
2017-Mar-15 03:33N 67°18' E 014°23'1 0.6
2017-Mar-15 02:33N 67°17' E 014°23'8 8.4
2017-Mar-15 01:33N 67°12' E 014°06'1010.3
2017-Mar-15 00:33N 67°03' E 013°51'10 9.9
2017-Mar-14 23:33N 66°58' E 013°30'10 9.7
2017-Mar-14 22:33N 66°50' E 013°16'1010.1
2017-Mar-14 21:33N 66°40' E 013°08'10 9.6
2017-Mar-14 20:33N 66°31' E 012°58'1110.5
2017-Mar-14 19:33N 66°21' E 012°57'1010.0
2017-Mar-14 18:33N 66°11' E 012°51'  

Dump ship's entire track history